sensor_id;sensor_type;location;lat;lon;timestamp;P1;durP1;ratioP1;P2;durP2;ratioP2
20749;SDS011;10535;50.664;4.564;2023-04-24T00:00:10;15.13;;;7.97;;
20749;SDS011;10535;50.664;4.564;2023-04-24T00:02:39;14.73;;;8.50;;
20749;SDS011;10535;50.664;4.564;2023-04-24T00:05:06;15.43;;;7.40;;
20749;SDS011;10535;50.664;4.564;2023-04-24T00:07:33;17.73;;;7.97;;
20749;SDS011;10535;50.664;4.564;2023-04-24T00:09:59;17.70;;;8.87;;
20749;SDS011;10535;50.664;4.564;2023-04-24T00:12:25;14.83;;;7.83;;
20749;SDS011;10535;50.664;4.564;2023-04-24T00:14:52;12.43;;;6.83;;
20749;SDS011;10535;50.664;4.564;2023-04-24T00:17:18;14.10;;;7.43;;
20749;SDS011;10535;50.664;4.564;2023-04-24T00:19:47;16.47;;;7.37;;
20749;SDS011;10535;50.664;4.564;2023-04-24T00:22:15;16.77;;;8.37;;
20749;SDS011;10535;50.664;4.564;2023-04-24T00:24:41;15.10;;;6.90;;
20749;SDS011;10535;50.664;4.564;2023-04-24T00:27:06;10.17;;;7.03;;
20749;SDS011;10535;50.664;4.564;2023-04-24T00:29:32;19.10;;;9.30;;
20749;SDS011;10535;50.664;4.564;2023-04-24T00:31:57;14.97;;;7.67;;
20749;SDS011;10535;50.664;4.564;2023-04-24T00:34:23;17.63;;;7.63;;
20749;SDS011;10535;50.664;4.564;2023-04-24T00:36:49;17.07;;;7.93;;
20749;SDS011;10535;50.664;4.564;2023-04-24T00:39:17;14.40;;;7.83;;
20749;SDS011;10535;50.664;4.564;2023-04-24T00:41:44;14.93;;;7.17;;
20749;SDS011;10535;50.664;4.564;2023-04-24T00:44:11;14.07;;;7.93;;
20749;SDS011;10535;50.664;4.564;2023-04-24T00:46:37;13.40;;;7.90;;
20749;SDS011;10535;50.664;4.564;2023-04-24T00:49:03;16.77;;;7.93;;
20749;SDS011;10535;50.664;4.564;2023-04-24T00:51:30;16.03;;;7.83;;
20749;SDS011;10535;50.664;4.564;2023-04-24T00:53:57;11.97;;;7.60;;
20749;SDS011;10535;50.664;4.564;2023-04-24T00:56:23;14.77;;;7.33;;
20749;SDS011;10535;50.664;4.564;2023-04-24T00:58:49;17.13;;;7.50;;
20749;SDS011;10535;50.664;4.564;2023-04-24T01:01:15;11.80;;;6.40;;
20749;SDS011;10535;50.664;4.564;2023-04-24T01:03:41;18.80;;;8.50;;
20749;SDS011;10535;50.664;4.564;2023-04-24T01:06:08;15.97;;;7.13;;
20749;SDS011;10535;50.664;4.564;2023-04-24T01:08:35;11.97;;;6.40;;
20749;SDS011;10535;50.664;4.564;2023-04-24T01:11:01;18.00;;;8.17;;
20749;SDS011;10535;50.664;4.564;2023-04-24T01:13:29;13.30;;;8.17;;
20749;SDS011;10535;50.664;4.564;2023-04-24T01:15:56;14.00;;;7.60;;
20749;SDS011;10535;50.664;4.564;2023-04-24T01:18:22;14.20;;;7.77;;
20749;SDS011;10535;50.664;4.564;2023-04-24T01:20:48;10.73;;;6.57;;
20749;SDS011;10535;50.664;4.564;2023-04-24T01:23:15;18.20;;;8.67;;
20749;SDS011;10535;50.664;4.564;2023-04-24T01:25:42;14.77;;;7.73;;
20749;SDS011;10535;50.664;4.564;2023-04-24T01:28:08;15.47;;;7.57;;
20749;SDS011;10535;50.664;4.564;2023-04-24T01:30:34;13.80;;;7.00;;
20749;SDS011;10535;50.664;4.564;2023-04-24T01:32:59;13.63;;;8.03;;
20749;SDS011;10535;50.664;4.564;2023-04-24T01:35:26;17.53;;;8.37;;
20749;SDS011;10535;50.664;4.564;2023-04-24T01:37:52;12.77;;;8.10;;
20749;SDS011;10535;50.664;4.564;2023-04-24T01:40:17;13.23;;;6.77;;
20749;SDS011;10535;50.664;4.564;2023-04-24T01:42:43;13.43;;;7.10;;
20749;SDS011;10535;50.664;4.564;2023-04-24T01:45:10;16.00;;;8.00;;
20749;SDS011;10535;50.664;4.564;2023-04-24T01:47:37;16.20;;;7.47;;
20749;SDS011;10535;50.664;4.564;2023-04-24T01:50:05;15.17;;;7.10;;
20749;SDS011;10535;50.664;4.564;2023-04-24T01:52:31;15.03;;;7.67;;
20749;SDS011;10535;50.664;4.564;2023-04-24T01:55:04;9.23;;;5.87;;
20749;SDS011;10535;50.664;4.564;2023-04-24T01:57:31;15.27;;;6.67;;
20749;SDS011;10535;50.664;4.564;2023-04-24T01:59:57;13.47;;;7.47;;
20749;SDS011;10535;50.664;4.564;2023-04-24T02:02:23;10.63;;;7.30;;
20749;SDS011;10535;50.664;4.564;2023-04-24T02:04:49;15.27;;;8.30;;
20749;SDS011;10535;50.664;4.564;2023-04-24T02:07:15;13.87;;;7.13;;
20749;SDS011;10535;50.664;4.564;2023-04-24T02:09:41;17.30;;;8.13;;
20749;SDS011;10535;50.664;4.564;2023-04-24T02:12:07;18.37;;;7.73;;
20749;SDS011;10535;50.664;4.564;2023-04-24T02:14:33;18.67;;;9.43;;
20749;SDS011;10535;50.664;4.564;2023-04-24T02:16:58;14.23;;;9.20;;
20749;SDS011;10535;50.664;4.564;2023-04-24T02:19:25;21.07;;;8.17;;
20749;SDS011;10535;50.664;4.564;2023-04-24T02:21:51;16.83;;;7.97;;
20749;SDS011;10535;50.664;4.564;2023-04-24T02:24:17;14.30;;;8.70;;
20749;SDS011;10535;50.664;4.564;2023-04-24T02:26:42;14.40;;;7.80;;
20749;SDS011;10535;50.664;4.564;2023-04-24T02:29:08;12.70;;;6.77;;
20749;SDS011;10535;50.664;4.564;2023-04-24T02:31:34;17.40;;;6.80;;
20749;SDS011;10535;50.664;4.564;2023-04-24T02:33:59;14.23;;;8.40;;
20749;SDS011;10535;50.664;4.564;2023-04-24T02:36:25;16.17;;;6.90;;
20749;SDS011;10535;50.664;4.564;2023-04-24T02:38:51;18.07;;;8.83;;
20749;SDS011;10535;50.664;4.564;2023-04-24T02:41:16;14.43;;;8.43;;
20749;SDS011;10535;50.664;4.564;2023-04-24T02:43:42;13.90;;;7.73;;
20749;SDS011;10535;50.664;4.564;2023-04-24T02:46:07;16.57;;;8.03;;
20749;SDS011;10535;50.664;4.564;2023-04-24T02:48:33;15.77;;;7.57;;
20749;SDS011;10535;50.664;4.564;2023-04-24T02:50:59;13.43;;;8.03;;
20749;SDS011;10535;50.664;4.564;2023-04-24T02:53:24;19.00;;;8.10;;
20749;SDS011;10535;50.664;4.564;2023-04-24T02:55:51;15.70;;;8.47;;
20749;SDS011;10535;50.664;4.564;2023-04-24T02:58:17;14.63;;;8.40;;
20749;SDS011;10535;50.664;4.564;2023-04-24T03:00:45;16.57;;;7.57;;
20749;SDS011;10535;50.664;4.564;2023-04-24T03:03:11;14.37;;;8.20;;
20749;SDS011;10535;50.664;4.564;2023-04-24T03:05:37;14.07;;;7.63;;
20749;SDS011;10535;50.664;4.564;2023-04-24T03:08:02;16.33;;;8.90;;
20749;SDS011;10535;50.664;4.564;2023-04-24T03:10:29;13.00;;;6.80;;
20749;SDS011;10535;50.664;4.564;2023-04-24T03:12:55;15.77;;;8.27;;
20749;SDS011;10535;50.664;4.564;2023-04-24T03:15:21;17.60;;;7.60;;
20749;SDS011;10535;50.664;4.564;2023-04-24T03:17:46;18.13;;;8.13;;
20749;SDS011;10535;50.664;4.564;2023-04-24T03:20:13;16.27;;;7.87;;
20749;SDS011;10535;50.664;4.564;2023-04-24T03:22:39;16.27;;;6.67;;
20749;SDS011;10535;50.664;4.564;2023-04-24T03:25:05;11.37;;;6.47;;
20749;SDS011;10535;50.664;4.564;2023-04-24T03:27:31;16.27;;;7.53;;
20749;SDS011;10535;50.664;4.564;2023-04-24T03:29:57;10.23;;;5.80;;
20749;SDS011;10535;50.664;4.564;2023-04-24T03:32:22;14.63;;;6.23;;
20749;SDS011;10535;50.664;4.564;2023-04-24T03:34:48;9.53;;;5.37;;
20749;SDS011;10535;50.664;4.564;2023-04-24T03:37:15;9.27;;;5.57;;
20749;SDS011;10535;50.664;4.564;2023-04-24T03:39:41;13.23;;;7.67;;
20749;SDS011;10535;50.664;4.564;2023-04-24T03:42:07;12.83;;;5.50;;
20749;SDS011;10535;50.664;4.564;2023-04-24T03:44:33;12.40;;;5.77;;
20749;SDS011;10535;50.664;4.564;2023-04-24T03:46:59;15.23;;;6.67;;
20749;SDS011;10535;50.664;4.564;2023-04-24T03:49:26;13.33;;;6.30;;
20749;SDS011;10535;50.664;4.564;2023-04-24T03:51:53;15.80;;;7.03;;
20749;SDS011;10535;50.664;4.564;2023-04-24T03:54:19;12.57;;;6.70;;
20749;SDS011;10535;50.664;4.564;2023-04-24T03:56:45;15.60;;;7.30;;
20749;SDS011;10535;50.664;4.564;2023-04-24T03:59:11;10.97;;;6.53;;
20749;SDS011;10535;50.664;4.564;2023-04-24T04:01:36;17.57;;;7.70;;
20749;SDS011;10535;50.664;4.564;2023-04-24T04:04:05;12.03;;;6.13;;
20749;SDS011;10535;50.664;4.564;2023-04-24T04:06:31;13.57;;;7.57;;
20749;SDS011;10535;50.664;4.564;2023-04-24T04:08:57;12.57;;;6.93;;
20749;SDS011;10535;50.664;4.564;2023-04-24T04:11:23;14.33;;;6.57;;
20749;SDS011;10535;50.664;4.564;2023-04-24T04:13:49;17.13;;;7.73;;
20749;SDS011;10535;50.664;4.564;2023-04-24T04:16:15;16.00;;;6.77;;
20749;SDS011;10535;50.664;4.564;2023-04-24T04:18:43;13.90;;;6.43;;
20749;SDS011;10535;50.664;4.564;2023-04-24T04:21:10;12.20;;;6.43;;
20749;SDS011;10535;50.664;4.564;2023-04-24T04:23:37;14.30;;;6.63;;
20749;SDS011;10535;50.664;4.564;2023-04-24T04:26:02;13.53;;;7.23;;
20749;SDS011;10535;50.664;4.564;2023-04-24T04:28:29;9.80;;;5.10;;
20749;SDS011;10535;50.664;4.564;2023-04-24T04:30:56;11.00;;;5.13;;
20749;SDS011;10535;50.664;4.564;2023-04-24T04:33:23;7.53;;;4.60;;
20749;SDS011;10535;50.664;4.564;2023-04-24T04:35:51;9.03;;;5.43;;
20749;SDS011;10535;50.664;4.564;2023-04-24T04:38:17;4.57;;;2.77;;
20749;SDS011;10535;50.664;4.564;2023-04-24T04:40:44;9.03;;;5.10;;
20749;SDS011;10535;50.664;4.564;2023-04-24T04:43:11;8.73;;;4.97;;
20749;SDS011;10535;50.664;4.564;2023-04-24T04:45:38;5.30;;;4.03;;
20749;SDS011;10535;50.664;4.564;2023-04-24T04:48:05;10.90;;;5.00;;
20749;SDS011;10535;50.664;4.564;2023-04-24T04:50:32;6.07;;;4.30;;
20749;SDS011;10535;50.664;4.564;2023-04-24T04:52:58;7.00;;;4.07;;
20749;SDS011;10535;50.664;4.564;2023-04-24T04:55:24;6.77;;;4.47;;
20749;SDS011;10535;50.664;4.564;2023-04-24T04:57:50;8.67;;;5.27;;
20749;SDS011;10535;50.664;4.564;2023-04-24T05:00:16;8.00;;;4.33;;
20749;SDS011;10535;50.664;4.564;2023-04-24T05:02:42;4.23;;;3.20;;
20749;SDS011;10535;50.664;4.564;2023-04-24T05:05:08;5.00;;;3.27;;
20749;SDS011;10535;50.664;4.564;2023-04-24T05:07:35;7.60;;;3.40;;
20749;SDS011;10535;50.664;4.564;2023-04-24T05:10:00;3.77;;;3.07;;
20749;SDS011;10535;50.664;4.564;2023-04-24T05:12:26;7.23;;;4.20;;
20749;SDS011;10535;50.664;4.564;2023-04-24T05:14:52;7.10;;;4.60;;
20749;SDS011;10535;50.664;4.564;2023-04-24T05:17:18;10.87;;;5.50;;
20749;SDS011;10535;50.664;4.564;2023-04-24T05:19:43;11.13;;;5.50;;
20749;SDS011;10535;50.664;4.564;2023-04-24T05:22:10;6.63;;;3.63;;
20749;SDS011;10535;50.664;4.564;2023-04-24T05:24:36;9.27;;;5.17;;
20749;SDS011;10535;50.664;4.564;2023-04-24T05:27:03;5.20;;;2.67;;
20749;SDS011;10535;50.664;4.564;2023-04-24T05:29:29;9.27;;;5.43;;
20749;SDS011;10535;50.664;4.564;2023-04-24T05:31:58;11.13;;;5.13;;
20749;SDS011;10535;50.664;4.564;2023-04-24T05:34:24;13.20;;;6.57;;
20749;SDS011;10535;50.664;4.564;2023-04-24T05:36:50;11.23;;;3.97;;
20749;SDS011;10535;50.664;4.564;2023-04-24T05:39:16;15.93;;;7.57;;
20749;SDS011;10535;50.664;4.564;2023-04-24T05:41:42;13.90;;;6.87;;
20749;SDS011;10535;50.664;4.564;2023-04-24T05:44:08;11.17;;;6.30;;
20749;SDS011;10535;50.664;4.564;2023-04-24T05:46:34;11.00;;;6.23;;
20749;SDS011;10535;50.664;4.564;2023-04-24T05:49:00;9.27;;;6.13;;
20749;SDS011;10535;50.664;4.564;2023-04-24T05:51:26;16.63;;;6.70;;
20749;SDS011;10535;50.664;4.564;2023-04-24T05:53:51;11.47;;;7.60;;
20749;SDS011;10535;50.664;4.564;2023-04-24T05:56:17;10.90;;;6.40;;
20749;SDS011;10535;50.664;4.564;2023-04-24T05:58:43;12.83;;;7.43;;
20749;SDS011;10535;50.664;4.564;2023-04-24T06:01:10;17.03;;;6.97;;
20749;SDS011;10535;50.664;4.564;2023-04-24T06:03:36;12.83;;;6.73;;
20749;SDS011;10535;50.664;4.564;2023-04-24T06:06:02;9.07;;;5.50;;
20749;SDS011;10535;50.664;4.564;2023-04-24T06:08:31;11.77;;;5.73;;
20749;SDS011;10535;50.664;4.564;2023-04-24T06:10:57;14.60;;;6.83;;
20749;SDS011;10535;50.664;4.564;2023-04-24T06:13:25;16.57;;;6.90;;
20749;SDS011;10535;50.664;4.564;2023-04-24T06:15:56;13.33;;;7.20;;
20749;SDS011;10535;50.664;4.564;2023-04-24T06:18:22;17.87;;;6.50;;
20749;SDS011;10535;50.664;4.564;2023-04-24T06:20:48;16.07;;;6.30;;
20749;SDS011;10535;50.664;4.564;2023-04-24T06:23:14;10.03;;;5.90;;
20749;SDS011;10535;50.664;4.564;2023-04-24T06:25:40;11.60;;;5.50;;
20749;SDS011;10535;50.664;4.564;2023-04-24T06:28:07;7.93;;;5.53;;
20749;SDS011;10535;50.664;4.564;2023-04-24T06:30:33;13.67;;;7.47;;
20749;SDS011;10535;50.664;4.564;2023-04-24T06:32:58;12.67;;;7.27;;
20749;SDS011;10535;50.664;4.564;2023-04-24T06:35:26;19.90;;;8.23;;
20749;SDS011;10535;50.664;4.564;2023-04-24T06:37:55;15.23;;;7.27;;
20749;SDS011;10535;50.664;4.564;2023-04-24T06:40:21;11.80;;;6.17;;
20749;SDS011;10535;50.664;4.564;2023-04-24T06:42:47;17.53;;;9.10;;
20749;SDS011;10535;50.664;4.564;2023-04-24T06:45:13;22.23;;;8.67;;
20749;SDS011;10535;50.664;4.564;2023-04-24T06:47:38;18.43;;;8.30;;
20749;SDS011;10535;50.664;4.564;2023-04-24T06:50:04;21.07;;;9.00;;
20749;SDS011;10535;50.664;4.564;2023-04-24T06:52:31;19.30;;;9.40;;
20749;SDS011;10535;50.664;4.564;2023-04-24T06:55:02;14.37;;;8.83;;
20749;SDS011;10535;50.664;4.564;2023-04-24T06:57:28;12.80;;;7.60;;
20749;SDS011;10535;50.664;4.564;2023-04-24T06:59:54;18.63;;;9.17;;
20749;SDS011;10535;50.664;4.564;2023-04-24T07:02:20;21.60;;;9.97;;
20749;SDS011;10535;50.664;4.564;2023-04-24T07:04:46;18.63;;;9.63;;
20749;SDS011;10535;50.664;4.564;2023-04-24T07:07:12;16.80;;;9.60;;
20749;SDS011;10535;50.664;4.564;2023-04-24T07:09:42;19.40;;;11.27;;
20749;SDS011;10535;50.664;4.564;2023-04-24T07:12:08;21.00;;;10.03;;
20749;SDS011;10535;50.664;4.564;2023-04-24T07:14:35;18.47;;;10.67;;
20749;SDS011;10535;50.664;4.564;2023-04-24T07:17:04;23.07;;;9.53;;
20749;SDS011;10535;50.664;4.564;2023-04-24T07:19:31;15.93;;;7.60;;
20749;SDS011;10535;50.664;4.564;2023-04-24T07:21:58;15.33;;;7.83;;
20749;SDS011;10535;50.664;4.564;2023-04-24T07:24:24;14.33;;;7.60;;
20749;SDS011;10535;50.664;4.564;2023-04-24T07:26:51;20.50;;;11.03;;
20749;SDS011;10535;50.664;4.564;2023-04-24T07:29:17;20.70;;;10.33;;
20749;SDS011;10535;50.664;4.564;2023-04-24T07:31:43;15.80;;;9.10;;
20749;SDS011;10535;50.664;4.564;2023-04-24T07:34:09;12.53;;;7.67;;
20749;SDS011;10535;50.664;4.564;2023-04-24T07:36:35;20.60;;;9.33;;
20749;SDS011;10535;50.664;4.564;2023-04-24T07:39:03;22.17;;;10.07;;
20749;SDS011;10535;50.664;4.564;2023-04-24T07:41:29;17.80;;;7.50;;
20749;SDS011;10535;50.664;4.564;2023-04-24T07:43:55;18.93;;;8.37;;
20749;SDS011;10535;50.664;4.564;2023-04-24T07:46:21;16.23;;;9.43;;
20749;SDS011;10535;50.664;4.564;2023-04-24T07:48:46;17.57;;;9.77;;
20749;SDS011;10535;50.664;4.564;2023-04-24T07:51:13;21.67;;;9.37;;
20749;SDS011;10535;50.664;4.564;2023-04-24T07:53:40;13.17;;;6.70;;
20749;SDS011;10535;50.664;4.564;2023-04-24T07:56:06;18.90;;;8.50;;
20749;SDS011;10535;50.664;4.564;2023-04-24T07:58:31;17.60;;;8.73;;
20749;SDS011;10535;50.664;4.564;2023-04-24T08:00:57;16.57;;;8.97;;
20749;SDS011;10535;50.664;4.564;2023-04-24T08:03:23;19.03;;;9.63;;
20749;SDS011;10535;50.664;4.564;2023-04-24T08:05:49;18.47;;;7.67;;
20749;SDS011;10535;50.664;4.564;2023-04-24T08:08:16;14.60;;;8.47;;
20749;SDS011;10535;50.664;4.564;2023-04-24T08:10:41;15.07;;;7.73;;
20749;SDS011;10535;50.664;4.564;2023-04-24T08:13:07;14.10;;;7.67;;
20749;SDS011;10535;50.664;4.564;2023-04-24T08:15:33;14.20;;;8.00;;
20749;SDS011;10535;50.664;4.564;2023-04-24T08:17:59;16.83;;;7.23;;
20749;SDS011;10535;50.664;4.564;2023-04-24T08:20:25;17.97;;;9.13;;
20749;SDS011;10535;50.664;4.564;2023-04-24T08:22:51;16.83;;;8.07;;
20749;SDS011;10535;50.664;4.564;2023-04-24T08:25:16;13.83;;;8.60;;
20749;SDS011;10535;50.664;4.564;2023-04-24T08:27:44;15.73;;;8.63;;
20749;SDS011;10535;50.664;4.564;2023-04-24T08:30:09;14.83;;;8.47;;
20749;SDS011;10535;50.664;4.564;2023-04-24T08:32:36;12.10;;;7.43;;
20749;SDS011;10535;50.664;4.564;2023-04-24T08:35:02;15.00;;;7.13;;
20749;SDS011;10535;50.664;4.564;2023-04-24T08:37:28;13.60;;;7.10;;
20749;SDS011;10535;50.664;4.564;2023-04-24T08:39:54;12.37;;;7.13;;
20749;SDS011;10535;50.664;4.564;2023-04-24T08:42:20;17.73;;;8.00;;
20749;SDS011;10535;50.664;4.564;2023-04-24T08:44:47;12.33;;;7.47;;
20749;SDS011;10535;50.664;4.564;2023-04-24T08:47:15;10.07;;;6.13;;
20749;SDS011;10535;50.664;4.564;2023-04-24T08:49:41;13.20;;;7.30;;
20749;SDS011;10535;50.664;4.564;2023-04-24T08:52:07;18.93;;;6.87;;
20749;SDS011;10535;50.664;4.564;2023-04-24T08:54:35;15.80;;;6.90;;
20749;SDS011;10535;50.664;4.564;2023-04-24T08:57:01;10.27;;;5.57;;
20749;SDS011;10535;50.664;4.564;2023-04-24T08:59:28;13.90;;;7.20;;
20749;SDS011;10535;50.664;4.564;2023-04-24T09:01:55;14.73;;;7.17;;
20749;SDS011;10535;50.664;4.564;2023-04-24T09:04:21;14.83;;;6.50;;
20749;SDS011;10535;50.664;4.564;2023-04-24T09:06:50;12.53;;;7.43;;
20749;SDS011;10535;50.664;4.564;2023-04-24T09:09:17;15.10;;;6.17;;
20749;SDS011;10535;50.664;4.564;2023-04-24T09:11:43;12.50;;;6.63;;
20749;SDS011;10535;50.664;4.564;2023-04-24T09:14:10;9.77;;;6.03;;
20749;SDS011;10535;50.664;4.564;2023-04-24T09:16:36;11.93;;;5.30;;
20749;SDS011;10535;50.664;4.564;2023-04-24T09:19:01;14.83;;;5.13;;
20749;SDS011;10535;50.664;4.564;2023-04-24T09:21:31;6.93;;;4.30;;
20749;SDS011;10535;50.664;4.564;2023-04-24T09:24:03;9.17;;;4.57;;
20749;SDS011;10535;50.664;4.564;2023-04-24T09:26:31;10.40;;;4.33;;
20749;SDS011;10535;50.664;4.564;2023-04-24T09:28:57;8.30;;;4.17;;
20749;SDS011;10535;50.664;4.564;2023-04-24T09:31:24;11.40;;;4.50;;
20749;SDS011;10535;50.664;4.564;2023-04-24T09:34:02;8.17;;;4.20;;
20749;SDS011;10535;50.664;4.564;2023-04-24T09:36:33;4.63;;;3.10;;
20749;SDS011;10535;50.664;4.564;2023-04-24T09:39:02;6.10;;;3.97;;
20749;SDS011;10535;50.664;4.564;2023-04-24T09:41:53;9.30;;;3.87;;
20749;SDS011;10535;50.664;4.564;2023-04-24T09:44:24;12.43;;;5.03;;
20749;SDS011;10535;50.664;4.564;2023-04-24T09:46:53;9.50;;;4.63;;
20749;SDS011;10535;50.664;4.564;2023-04-24T09:49:21;8.83;;;4.43;;
20749;SDS011;10535;50.664;4.564;2023-04-24T09:51:49;9.63;;;5.53;;
20749;SDS011;10535;50.664;4.564;2023-04-24T09:54:17;6.43;;;3.13;;
20749;SDS011;10535;50.664;4.564;2023-04-24T09:56:46;7.80;;;3.77;;
20749;SDS011;10535;50.664;4.564;2023-04-24T09:59:14;4.30;;;3.00;;
20749;SDS011;10535;50.664;4.564;2023-04-24T10:01:40;4.50;;;2.47;;
20749;SDS011;10535;50.664;4.564;2023-04-24T10:04:28;2.87;;;2.30;;
20749;SDS011;10535;50.664;4.564;2023-04-24T10:06:54;8.40;;;3.70;;
20749;SDS011;10535;50.664;4.564;2023-04-24T10:09:21;4.43;;;2.97;;
20749;SDS011;10535;50.664;4.564;2023-04-24T10:11:49;5.73;;;2.90;;
20749;SDS011;10535;50.664;4.564;2023-04-24T10:14:17;2.63;;;2.37;;
20749;SDS011;10535;50.664;4.564;2023-04-24T10:16:47;3.80;;;2.53;;
20749;SDS011;10535;50.664;4.564;2023-04-24T10:19:13;2.47;;;2.10;;
20749;SDS011;10535;50.664;4.564;2023-04-24T10:21:41;3.67;;;2.23;;
20749;SDS011;10535;50.664;4.564;2023-04-24T10:24:14;3.57;;;2.20;;
20749;SDS011;10535;50.664;4.564;2023-04-24T10:26:41;7.90;;;3.57;;
20749;SDS011;10535;50.664;4.564;2023-04-24T10:29:08;10.07;;;2.87;;
20749;SDS011;10535;50.664;4.564;2023-04-24T10:31:37;7.60;;;3.27;;
20749;SDS011;10535;50.664;4.564;2023-04-24T10:34:04;12.53;;;3.70;;
20749;SDS011;10535;50.664;4.564;2023-04-24T10:36:35;6.63;;;3.30;;
20749;SDS011;10535;50.664;4.564;2023-04-24T10:39:06;3.70;;;2.43;;
20749;SDS011;10535;50.664;4.564;2023-04-24T10:41:36;5.40;;;3.50;;
20749;SDS011;10535;50.664;4.564;2023-04-24T10:44:07;4.53;;;2.83;;
20749;SDS011;10535;50.664;4.564;2023-04-24T10:46:38;4.97;;;2.50;;
20749;SDS011;10535;50.664;4.564;2023-04-24T10:49:08;4.33;;;2.93;;
20749;SDS011;10535;50.664;4.564;2023-04-24T10:51:45;4.47;;;3.30;;
20749;SDS011;10535;50.664;4.564;2023-04-24T10:54:27;3.93;;;2.93;;
20749;SDS011;10535;50.664;4.564;2023-04-24T11:00:09;7.47;;;3.97;;
20749;SDS011;10535;50.664;4.564;2023-04-24T11:02:45;7.83;;;4.23;;
20749;SDS011;10535;50.664;4.564;2023-04-24T11:05:18;7.43;;;4.40;;
20749;SDS011;10535;50.664;4.564;2023-04-24T11:13:09;9.27;;;5.87;;
20749;SDS011;10535;50.664;4.564;2023-04-24T11:15:40;12.93;;;6.77;;
20749;SDS011;10535;50.664;4.564;2023-04-24T11:18:13;20.07;;;7.27;;
20749;SDS011;10535;50.664;4.564;2023-04-24T11:20:43;14.03;;;6.10;;
20749;SDS011;10535;50.664;4.564;2023-04-24T11:23:35;9.20;;;6.20;;
20749;SDS011;10535;50.664;4.564;2023-04-24T11:26:12;7.63;;;6.17;;
20749;SDS011;10535;50.664;4.564;2023-04-24T11:28:48;10.47;;;6.57;;
20749;SDS011;10535;50.664;4.564;2023-04-24T11:34:11;16.80;;;7.53;;
20749;SDS011;10535;50.664;4.564;2023-04-24T11:36:42;16.27;;;6.87;;
20749;SDS011;10535;50.664;4.564;2023-04-24T11:39:11;11.67;;;6.40;;
20749;SDS011;10535;50.664;4.564;2023-04-24T11:41:37;12.53;;;7.13;;
20749;SDS011;10535;50.664;4.564;2023-04-24T11:44:08;10.83;;;7.23;;
20749;SDS011;10535;50.664;4.564;2023-04-24T11:46:35;13.17;;;7.33;;
20749;SDS011;10535;50.664;4.564;2023-04-24T11:49:02;13.27;;;7.47;;
20749;SDS011;10535;50.664;4.564;2023-04-24T11:51:28;11.83;;;6.60;;
20749;SDS011;10535;50.664;4.564;2023-04-24T11:53:56;10.73;;;6.73;;
20749;SDS011;10535;50.664;4.564;2023-04-24T11:56:25;12.33;;;7.10;;
20749;SDS011;10535;50.664;4.564;2023-04-24T11:58:54;11.43;;;6.63;;
20749;SDS011;10535;50.664;4.564;2023-04-24T12:01:20;11.00;;;6.63;;
20749;SDS011;10535;50.664;4.564;2023-04-24T12:03:49;13.13;;;6.97;;
20749;SDS011;10535;50.664;4.564;2023-04-24T12:06:18;11.20;;;5.70;;
20749;SDS011;10535;50.664;4.564;2023-04-24T12:08:47;7.83;;;5.80;;
20749;SDS011;10535;50.664;4.564;2023-04-24T12:11:14;8.10;;;5.43;;
20749;SDS011;10535;50.664;4.564;2023-04-24T12:13:43;8.97;;;5.30;;
20749;SDS011;10535;50.664;4.564;2023-04-24T12:16:11;9.30;;;5.77;;
20749;SDS011;10535;50.664;4.564;2023-04-24T12:18:41;12.93;;;5.97;;
20749;SDS011;10535;50.664;4.564;2023-04-24T12:21:15;8.60;;;6.00;;
20749;SDS011;10535;50.664;4.564;2023-04-24T12:23:42;10.90;;;6.63;;
20749;SDS011;10535;50.664;4.564;2023-04-24T12:26:18;10.60;;;6.27;;
20749;SDS011;10535;50.664;4.564;2023-04-24T12:28:45;8.63;;;5.07;;
20749;SDS011;10535;50.664;4.564;2023-04-24T12:31:16;8.17;;;5.57;;
20749;SDS011;10535;50.664;4.564;2023-04-24T12:33:42;11.07;;;6.30;;
20749;SDS011;10535;50.664;4.564;2023-04-24T12:36:11;9.20;;;5.37;;
20749;SDS011;10535;50.664;4.564;2023-04-24T12:38:37;11.40;;;5.60;;
20749;SDS011;10535;50.664;4.564;2023-04-24T12:41:07;7.83;;;5.30;;
20749;SDS011;10535;50.664;4.564;2023-04-24T12:43:34;10.83;;;5.90;;
20749;SDS011;10535;50.664;4.564;2023-04-24T12:46:00;11.73;;;5.70;;
20749;SDS011;10535;50.664;4.564;2023-04-24T12:48:27;8.33;;;4.80;;
20749;SDS011;10535;50.664;4.564;2023-04-24T12:50:52;10.47;;;5.40;;
20749;SDS011;10535;50.664;4.564;2023-04-24T12:53:18;10.00;;;5.80;;
20749;SDS011;10535;50.664;4.564;2023-04-24T12:55:44;8.37;;;5.67;;
20749;SDS011;10535;50.664;4.564;2023-04-24T12:58:11;9.43;;;5.17;;
20749;SDS011;10535;50.664;4.564;2023-04-24T13:00:38;12.90;;;6.10;;
20749;SDS011;10535;50.664;4.564;2023-04-24T13:03:04;9.10;;;6.53;;
20749;SDS011;10535;50.664;4.564;2023-04-24T13:05:30;10.07;;;5.23;;
20749;SDS011;10535;50.664;4.564;2023-04-24T13:07:55;11.07;;;6.43;;
20749;SDS011;10535;50.664;4.564;2023-04-24T13:10:22;8.63;;;4.70;;
20749;SDS011;10535;50.664;4.564;2023-04-24T13:12:47;8.57;;;5.07;;
20749;SDS011;10535;50.664;4.564;2023-04-24T13:15:14;15.60;;;5.30;;
20749;SDS011;10535;50.664;4.564;2023-04-24T13:17:40;7.10;;;4.87;;
20749;SDS011;10535;50.664;4.564;2023-04-24T13:20:06;8.23;;;4.77;;
20749;SDS011;10535;50.664;4.564;2023-04-24T13:22:32;12.33;;;5.50;;
20749;SDS011;10535;50.664;4.564;2023-04-24T13:24:57;11.77;;;4.73;;
20749;SDS011;10535;50.664;4.564;2023-04-24T13:27:23;10.97;;;6.00;;
20749;SDS011;10535;50.664;4.564;2023-04-24T13:29:49;7.93;;;5.67;;
20749;SDS011;10535;50.664;4.564;2023-04-24T13:32:14;7.80;;;4.53;;
20749;SDS011;10535;50.664;4.564;2023-04-24T13:34:40;7.93;;;5.23;;
20749;SDS011;10535;50.664;4.564;2023-04-24T13:37:06;10.20;;;5.37;;
20749;SDS011;10535;50.664;4.564;2023-04-24T13:39:33;6.83;;;4.77;;
20749;SDS011;10535;50.664;4.564;2023-04-24T13:42:00;9.50;;;5.33;;
20749;SDS011;10535;50.664;4.564;2023-04-24T13:44:26;12.27;;;6.13;;
20749;SDS011;10535;50.664;4.564;2023-04-24T13:46:52;9.23;;;5.63;;
20749;SDS011;10535;50.664;4.564;2023-04-24T13:49:21;11.27;;;5.70;;
20749;SDS011;10535;50.664;4.564;2023-04-24T13:51:49;12.57;;;6.53;;
20749;SDS011;10535;50.664;4.564;2023-04-24T13:54:16;14.20;;;5.33;;
20749;SDS011;10535;50.664;4.564;2023-04-24T13:56:41;11.13;;;6.20;;
20749;SDS011;10535;50.664;4.564;2023-04-24T13:59:07;9.50;;;5.23;;
20749;SDS011;10535;50.664;4.564;2023-04-24T14:01:33;9.80;;;5.37;;
20749;SDS011;10535;50.664;4.564;2023-04-24T14:03:59;8.10;;;5.20;;
20749;SDS011;10535;50.664;4.564;2023-04-24T14:06:25;9.03;;;5.70;;
20749;SDS011;10535;50.664;4.564;2023-04-24T14:08:51;8.43;;;5.43;;
20749;SDS011;10535;50.664;4.564;2023-04-24T14:11:17;11.37;;;6.23;;
20749;SDS011;10535;50.664;4.564;2023-04-24T14:13:43;13.00;;;6.60;;
20749;SDS011;10535;50.664;4.564;2023-04-24T14:16:09;9.70;;;5.83;;
20749;SDS011;10535;50.664;4.564;2023-04-24T14:18:35;13.50;;;7.60;;
20749;SDS011;10535;50.664;4.564;2023-04-24T14:21:01;13.03;;;6.90;;
20749;SDS011;10535;50.664;4.564;2023-04-24T14:23:27;10.67;;;6.90;;
20749;SDS011;10535;50.664;4.564;2023-04-24T14:25:53;13.20;;;7.43;;
20749;SDS011;10535;50.664;4.564;2023-04-24T14:28:19;11.87;;;6.60;;
20749;SDS011;10535;50.664;4.564;2023-04-24T14:30:46;10.87;;;6.43;;
20749;SDS011;10535;50.664;4.564;2023-04-24T14:33:12;15.17;;;8.13;;
20749;SDS011;10535;50.664;4.564;2023-04-24T14:35:38;16.50;;;7.57;;
20749;SDS011;10535;50.664;4.564;2023-04-24T14:38:07;19.13;;;8.97;;
20749;SDS011;10535;50.664;4.564;2023-04-24T14:40:32;14.63;;;7.73;;
20749;SDS011;10535;50.664;4.564;2023-04-24T14:42:58;17.33;;;8.73;;
20749;SDS011;10535;50.664;4.564;2023-04-24T14:45:24;14.80;;;8.77;;
20749;SDS011;10535;50.664;4.564;2023-04-24T14:47:50;16.77;;;8.47;;